Time;durP1;ratioP1;P1;durP2;ratioP2;P2;SDS_P1;SDS_P2;PMS_P1;PMS_P2;Temp;Humidity;BMP_temperature;BMP_pressure;BME280_temperature;BME280_humidity;BME280_pressure;Samples;Min_cycle;Max_cycle;Signal;HPM_P1;HPM_P2
2023/03/30 00:00:32;;;;;;;;;;;13.00;99.90;;;;;;4922137;29;20009;-80
2023/03/30 00:03:01;;;;;;;;;;;13.00;99.90;;;;;;4939387;29;19933;-78
2023/03/30 00:05:28;;;;;;;;;;;13.00;99.90;;;;;;4935206;29;20057;-78
2023/03/30 00:07:57;;;;;;;;;;;13.10;99.90;;;;;;4920462;29;19931;-79
2023/03/30 00:10:24;;;;;;;;;;;13.10;99.90;;;;;;4924964;29;19993;-84
2023/03/30 00:12:51;;;;;;;;;;;13.10;99.90;;;;;;4926573;29;19923;-82
2023/03/30 00:15:20;;;;;;;;;;;13.10;99.90;;;;;;4942744;29;20030;-80
2023/03/30 00:17:47;;;;;;;;;;;13.10;99.90;;;;;;4929303;29;19926;-81
2023/03/30 00:20:15;;;;;;;;;;;13.10;99.90;;;;;;4945442;29;19910;-83
2023/03/30 00:22:43;;;;;;;;;;;13.20;99.90;;;;;;4929847;29;19926;-80
2023/03/30 00:25:13;;;;;;;;;;;13.20;99.90;;;;;;4924006;29;19926;-80
2023/03/30 00:27:41;;;;;;;;;;;13.20;99.90;;;;;;4922850;29;19927;-80
2023/03/30 00:30:10;;;;;;;;;;;13.20;99.90;;;;;;4924903;29;19933;-81
2023/03/30 00:32:37;;;;;;;;;;;13.30;99.90;;;;;;4924604;29;19930;-82
2023/03/30 00:35:05;;;;;;;;;;;13.30;99.90;;;;;;4942069;29;20351;-81
2023/03/30 00:37:36;;;;;;;;;;;13.30;99.90;;;;;;4928023;29;19930;-83
2023/03/30 00:40:06;;;;;;;;;;;13.30;99.90;;;;;;4928815;29;19931;-81
2023/03/30 00:42:35;;;;;;;;;;;13.30;99.90;;;;;;4924078;29;19922;-82
2023/03/30 00:45:09;;;;;;;;;;;13.30;99.90;;;;;;4924975;29;19950;-83
2023/03/30 00:47:38;;;;;;;;;;;13.20;99.90;;;;;;4925585;29;19926;-82
2023/03/30 00:50:06;;;;;;;;;;;13.20;99.90;;;;;;4924485;29;19989;-80
2023/03/30 00:52:36;;;;;;;;;;;13.20;99.90;;;;;;4941299;28;20041;-80
2023/03/30 00:55:04;;;;;;;;;;;13.20;99.90;;;;;;4921408;29;20461;-81
2023/03/30 00:57:33;;;;;;;;;;;13.20;99.90;;;;;;4940814;29;20372;-83
2023/03/30 01:00:06;;;;;;;;;;;13.20;99.90;;;;;;4944928;29;19973;-80
2023/03/30 01:02:34;;;;;;;;;;;13.20;99.90;;;;;;4942236;29;19969;-81
2023/03/30 01:05:02;;;;;;;;;;;13.10;99.90;;;;;;4935496;29;19922;-83
2023/03/30 01:07:30;;;;;;;;;;;13.10;99.90;;;;;;4924998;29;19934;-82
2023/03/30 01:09:57;;;;;;;;;;;13.10;99.90;;;;;;4919049;29;19910;-81
2023/03/30 01:12:24;;;;;;;;;;;13.00;99.90;;;;;;4916111;29;19933;-81
2023/03/30 01:14:53;;;;;;;;;;;13.10;99.90;;;;;;4922403;29;19930;-80
2023/03/30 01:17:27;;;;;;;;;;;13.00;99.90;;;;;;4905988;29;19934;-80
2023/03/30 01:20:24;;;;;;;;;;;13.00;99.90;;;;;;4916680;29;19922;-82
2023/03/30 01:23:03;;;;;;;;;;;13.00;99.90;;;;;;4935868;28;19922;-79
2023/03/30 01:25:45;;;;;;;;;;;13.10;99.90;;;;;;4941411;28;19923;-81
2023/03/30 01:28:25;;;;;;;;;;;13.20;99.90;;;;;;4924780;29;19922;-80
2023/03/30 01:31:05;;;;;;;;;;;13.20;99.90;;;;;;4936804;29;19910;-79
2023/03/30 01:33:52;;;;;;;;;;;13.30;99.90;;;;;;4922938;29;20215;-82
2023/03/30 01:36:35;;;;;;;;;;;13.30;99.90;;;;;;4939860;29;19922;-81
2023/03/30 01:39:14;;;;;;;;;;;13.40;99.90;;;;;;4937166;28;19922;-81
2023/03/30 01:41:47;;;;;;;;;;;13.40;99.90;;;;;;4923737;29;20406;-82
2023/03/30 01:44:16;;;;;;;;;;;13.40;99.90;;;;;;4926414;29;19927;-82
2023/03/30 01:46:46;;;;;;;;;;;13.40;99.90;;;;;;4966305;28;19931;-82
2023/03/30 01:49:16;;;;;;;;;;;13.40;99.90;;;;;;4933584;28;19911;-80
2023/03/30 01:51:47;;;;;;;;;;;13.50;99.90;;;;;;4910896;28;19990;-78
2023/03/30 01:54:18;;;;;;;;;;;13.50;99.90;;;;;;4925540;29;19949;-78
2023/03/30 01:56:47;;;;;;;;;;;13.50;99.90;;;;;;4924965;29;20547;-76
2023/03/30 01:59:18;;;;;;;;;;;13.50;99.90;;;;;;4925717;29;19927;-78
2023/03/30 02:01:48;;;;;;;;;;;13.60;99.90;;;;;;4928312;29;19954;-80
2023/03/30 02:04:16;;;;;;;;;;;13.60;99.90;;;;;;4929407;29;19927;-80
2023/03/30 02:06:46;;;;;;;;;;;13.60;99.90;;;;;;4941304;29;20295;-77
2023/03/30 02:09:15;;;;;;;;;;;13.70;99.90;;;;;;4926525;29;19940;-79
2023/03/30 02:11:45;;;;;;;;;;;13.70;99.90;;;;;;4925610;29;19968;-82
2023/03/30 02:14:15;;;;;;;;;;;13.70;99.90;;;;;;4947953;29;20387;-82
2023/03/30 02:16:46;;;;;;;;;;;13.80;99.90;;;;;;4936827;29;19956;-83
2023/03/30 02:19:15;;;;;;;;;;;13.80;99.90;;;;;;4945903;29;19926;-82
2023/03/30 02:21:43;;;;;;;;;;;13.80;99.90;;;;;;4930712;29;19929;-81
2023/03/30 02:24:16;;;;;;;;;;;13.90;99.90;;;;;;4946653;29;19927;-81
2023/03/30 02:26:46;;;;;;;;;;;13.90;99.90;;;;;;4943750;29;19926;-81
2023/03/30 02:29:13;;;;;;;;;;;13.90;99.90;;;;;;4922436;29;19973;-82
2023/03/30 02:31:40;;;;;;;;;;;13.90;99.90;;;;;;4921716;29;19927;-82
2023/03/30 02:34:14;;;;;;;;;;;13.90;99.90;;;;;;4939034;29;19997;-82
2023/03/30 02:36:56;;;;;;;;;;;13.90;99.90;;;;;;4914958;29;19927;-82
2023/03/30 02:39:27;;;;;;;;;;;13.90;99.90;;;;;;4908459;29;20283;-81
2023/03/30 02:42:10;;;;;;;;;;;13.90;99.90;;;;;;4914296;29;19927;-83
2023/03/30 02:44:41;;;;;;;;;;;13.90;99.90;;;;;;4932079;29;19954;-82
2023/03/30 02:47:08;;;;;;;;;;;13.90;99.90;;;;;;4919474;29;19926;-82
2023/03/30 02:49:40;;;;;;;;;;;13.80;99.90;;;;;;4919230;29;19927;-81
2023/03/30 02:52:09;;;;;;;;;;;13.80;99.90;;;;;;4918490;29;20025;-82
2023/03/30 02:54:48;;;;;;;;;;;13.80;99.90;;;;;;4917488;29;19926;-81
2023/03/30 02:57:25;;;;;;;;;;;13.70;99.90;;;;;;4945538;28;19929;-81
2023/03/30 02:59:56;;;;;;;;;;;13.60;99.90;;;;;;4924319;29;20403;-81
2023/03/30 03:02:25;;;;;;;;;;;13.50;99.90;;;;;;4921963;29;19933;-81
2023/03/30 03:05:02;;;;;;;;;;;13.40;99.90;;;;;;4922501;29;20634;-82
2023/03/30 03:07:56;;;;;;;;;;;13.40;99.90;;;;;;4928954;29;19934;-80
2023/03/30 03:10:23;;;;;;;;;;;13.40;99.90;;;;;;4910122;29;20363;-81
2023/03/30 03:12:52;;;;;;;;;;;13.40;99.90;;;;;;4920739;29;20045;-81
2023/03/30 03:15:21;;;;;;;;;;;13.40;99.90;;;;;;4919659;29;20421;-81
2023/03/30 03:18:07;;;;;;;;;;;13.40;99.90;;;;;;4923720;29;19933;-79
2023/03/30 03:20:35;;;;;;;;;;;13.40;99.90;;;;;;4923405;29;20012;-81
2023/03/30 03:23:03;;;;;;;;;;;13.50;99.90;;;;;;4925578;29;20407;-80
2023/03/30 03:25:37;;;;;;;;;;;13.50;99.90;;;;;;4923385;29;20023;-80
2023/03/30 03:28:11;;;;;;;;;;;13.60;99.90;;;;;;4926883;29;19922;-80
2023/03/30 03:30:48;;;;;;;;;;;13.60;99.90;;;;;;4929257;29;20387;-81
2023/03/30 03:33:19;;;;;;;;;;;13.70;99.90;;;;;;4925151;29;19970;-82
2023/03/30 03:35:53;;;;;;;;;;;13.80;99.90;;;;;;4925387;29;19974;-81
2023/03/30 03:38:21;;;;;;;;;;;13.80;99.90;;;;;;4929325;29;20693;-81
2023/03/30 03:40:49;;;;;;;;;;;13.80;99.90;;;;;;4927732;29;19986;-81
2023/03/30 03:43:18;;;;;;;;;;;13.90;99.90;;;;;;4927573;29;19934;-82
2023/03/30 03:45:46;;;;;;;;;;;13.90;99.90;;;;;;4928881;29;19956;-81
2023/03/30 03:48:13;;;;;;;;;;;14.00;99.90;;;;;;4927585;29;19927;-83
2023/03/30 03:50:50;;;;;;;;;;;14.00;99.90;;;;;;4928453;29;19981;-81
2023/03/30 03:53:17;;;;;;;;;;;14.00;99.90;;;;;;4928037;29;19927;-82
2023/03/30 03:55:47;;;;;;;;;;;14.10;99.90;;;;;;4937172;29;19930;-80
2023/03/30 03:58:16;;;;;;;;;;;14.10;99.90;;;;;;4934178;29;19927;-83
2023/03/30 04:00:45;;;;;;;;;;;14.10;99.90;;;;;;4929874;29;19926;-82
2023/03/30 04:03:12;;;;;;;;;;;14.10;99.90;;;;;;4946692;29;19982;-82
2023/03/30 04:05:39;;;;;;;;;;;14.10;99.90;;;;;;4929255;29;19923;-80
2023/03/30 04:08:09;;;;;;;;;;;14.10;99.90;;;;;;4932078;29;19930;-82
2023/03/30 04:10:36;;;;;;;;;;;14.10;99.90;;;;;;4924328;29;20035;-82
2023/03/30 04:13:15;;;;;;;;;;;14.20;99.90;;;;;;4926730;29;19933;-81
2023/03/30 04:15:49;;;;;;;;;;;14.20;99.90;;;;;;4947687;29;19959;-82
2023/03/30 04:18:37;;;;;;;;;;;14.30;99.90;;;;;;4946753;29;19926;-83
2023/03/30 04:21:24;;;;;;;;;;;14.30;99.90;;;;;;4908246;29;19911;-83
2023/03/30 04:24:13;;;;;;;;;;;14.30;99.90;;;;;;4931599;29;19927;-82
2023/03/30 04:26:58;;;;;;;;;;;14.40;99.90;;;;;;4948551;29;19983;-83
2023/03/30 04:29:28;;;;;;;;;;;14.40;99.90;;;;;;4949227;29;19922;-83
2023/03/30 04:32:24;;;;;;;;;;;14.40;99.90;;;;;;4948423;29;19958;-82
2023/03/30 04:34:57;;;;;;;;;;;14.40;99.90;;;;;;4930871;29;19939;-83
2023/03/30 04:37:29;;;;;;;;;;;14.40;99.90;;;;;;4947667;29;19926;-83
2023/03/30 04:40:15;;;;;;;;;;;14.40;99.90;;;;;;4948238;29;19917;-83
2023/03/30 04:43:03;;;;;;;;;;;14.40;99.90;;;;;;4938081;29;19926;-82
2023/03/30 04:45:47;;;;;;;;;;;14.40;99.90;;;;;;4924413;29;20576;-82
2023/03/30 04:48:34;;;;;;;;;;;14.40;99.90;;;;;;4943150;29;20522;-82
2023/03/30 04:51:17;;;;;;;;;;;14.30;99.90;;;;;;4941841;29;19942;-82
2023/03/30 04:54:07;;;;;;;;;;;14.30;99.90;;;;;;4914520;29;19931;-82
2023/03/30 04:56:52;;;;;;;;;;;14.30;99.90;;;;;;4941544;29;19942;-81
2023/03/30 04:59:19;;;;;;;;;;;14.30;99.90;;;;;;4939716;29;19927;-80
2023/03/30 05:01:58;;;;;;;;;;;14.30;99.90;;;;;;4953222;28;20756;-80
2023/03/30 05:04:49;;;;;;;;;;;14.20;99.90;;;;;;4898307;29;19926;-80
2023/03/30 05:07:20;;;;;;;;;;;14.20;99.90;;;;;;4935956;29;19926;-80
2023/03/30 05:10:03;;;;;;;;;;;14.20;99.90;;;;;;4940054;29;19946;-81
2023/03/30 05:12:53;;;;;;;;;;;14.20;99.90;;;;;;4938834;29;20021;-79
2023/03/30 05:15:40;;;;;;;;;;;14.20;99.90;;;;;;4940124;29;19933;-79
2023/03/30 05:18:10;;;;;;;;;;;14.20;99.90;;;;;;4937899;29;19933;-81
2023/03/30 05:20:58;;;;;;;;;;;14.20;99.90;;;;;;4901891;29;19978;-81
2023/03/30 05:23:44;;;;;;;;;;;14.10;99.90;;;;;;4930997;29;20011;-84
2023/03/30 05:29:16;;;;;;;;;;;14.10;99.90;;;;;;4896925;29;19991;-75
2023/03/30 05:32:01;;;;;;;;;;;14.10;99.90;;;;;;5429139;23;19929;-76
2023/03/30 05:34:44;;;;;;;;;;;14.20;99.90;;;;;;4951310;28;19926;-77
2023/03/30 05:37:32;;;;;;;;;;;14.20;99.90;;;;;;4949264;29;19966;-76
2023/03/30 05:40:18;;;;;;;;;;;14.20;99.90;;;;;;4956714;28;19930;-77
2023/03/30 05:43:17;;;;;;;;;;;14.30;99.90;;;;;;4910929;29;19966;-78
2023/03/30 05:46:02;;;;;;;;;;;14.30;99.90;;;;;;4916151;29;19926;-81
2023/03/30 05:48:51;;;;;;;;;;;14.30;99.90;;;;;;4926678;29;19934;-77
2023/03/30 05:51:40;;;;;;;;;;;14.40;99.90;;;;;;4930454;29;19946;-75
2023/03/30 05:54:28;;;;;;;;;;;14.80;99.90;;;;;;4932085;28;20000;-76
2023/03/30 05:57:07;;;;;;;;;;;14.50;99.90;;;;;;4947026;29;19927;-76
2023/03/30 05:59:56;;;;;;;;;;;14.40;99.90;;;;;;4929511;29;19926;-76
2023/03/30 06:02:41;;;;;;;;;;;14.50;99.90;;;;;;4978235;23;19981;-80
2023/03/30 06:05:13;;;;;;;;;;;14.50;99.90;;;;;;4952342;29;19938;-80
2023/03/30 06:07:44;;;;;;;;;;;14.60;99.90;;;;;;4942674;28;19926;-81
2023/03/30 06:10:13;;;;;;;;;;;14.70;99.90;;;;;;4942402;28;19957;-81
2023/03/30 06:12:40;;;;;;;;;;;14.70;99.90;;;;;;4947440;29;20607;-81
2023/03/30 06:15:15;;;;;;;;;;;14.80;99.90;;;;;;4944087;29;20346;-83
2023/03/30 06:17:48;;;;;;;;;;;14.90;99.90;;;;;;4922544;29;19926;-81
2023/03/30 06:20:15;;;;;;;;;;;14.90;99.90;;;;;;4937518;29;19926;-81
2023/03/30 06:22:45;;;;;;;;;;;15.00;99.90;;;;;;4939207;29;19930;-82
2023/03/30 06:25:19;;;;;;;;;;;15.00;99.90;;;;;;4941250;29;19926;-83
2023/03/30 06:27:46;;;;;;;;;;;15.00;99.90;;;;;;4941880;28;19981;-81
2023/03/30 06:30:14;;;;;;;;;;;15.00;99.90;;;;;;4943229;29;19931;-81
2023/03/30 06:32:44;;;;;;;;;;;15.10;99.90;;;;;;4940459;29;19954;-82
2023/03/30 06:35:25;;;;;;;;;;;15.10;99.90;;;;;;4942159;29;19958;-82
2023/03/30 06:37:53;;;;;;;;;;;15.10;99.90;;;;;;4947118;28;19923;-82
2023/03/30 06:40:22;;;;;;;;;;;15.10;99.90;;;;;;4941425;29;19942;-82
2023/03/30 06:42:51;;;;;;;;;;;15.10;99.90;;;;;;4951259;28;19922;-82
2023/03/30 06:45:27;;;;;;;;;;;15.20;99.90;;;;;;4946596;29;20021;-81
2023/03/30 06:47:54;;;;;;;;;;;15.20;99.90;;;;;;4942232;29;19926;-81
2023/03/30 06:50:22;;;;;;;;;;;15.30;99.90;;;;;;4934665;29;19927;-80
2023/03/30 06:52:53;;;;;;;;;;;15.30;99.90;;;;;;4961262;28;19926;-81
2023/03/30 06:55:22;;;;;;;;;;;15.30;99.90;;;;;;4944115;29;19923;-81
2023/03/30 06:57:49;;;;;;;;;;;15.30;99.90;;;;;;4946283;29;19954;-82
2023/03/30 07:00:18;;;;;;;;;;;15.30;99.90;;;;;;4951089;28;19922;-81
2023/03/30 07:03:06;;;;;;;;;;;15.40;99.90;;;;;;4922814;29;19926;-81
2023/03/30 07:05:37;;;;;;;;;;;15.50;99.90;;;;;;4946893;29;20444;-81
2023/03/30 07:08:13;;;;;;;;;;;15.60;99.90;;;;;;4945734;29;19922;-82
2023/03/30 07:10:47;;;;;;;;;;;15.70;99.90;;;;;;4946017;29;19957;-82
2023/03/30 07:13:15;;;;;;;;;;;15.80;99.90;;;;;;4946473;29;19950;-81
2023/03/30 07:15:43;;;;;;;;;;;16.00;99.90;;;;;;4945543;29;20447;-82
2023/03/30 07:18:10;;;;;;;;;;;16.10;99.90;;;;;;4946098;29;19922;-82
2023/03/30 07:20:37;;;;;;;;;;;16.10;99.90;;;;;;4946363;29;20105;-81
2023/03/30 07:23:20;;;;;;;;;;;16.20;99.90;;;;;;4949924;28;19937;-81
2023/03/30 07:25:51;;;;;;;;;;;16.20;99.90;;;;;;4945227;29;19937;-82
2023/03/30 07:28:32;;;;;;;;;;;16.20;99.90;;;;;;4951370;29;19933;-81
2023/03/30 07:31:04;;;;;;;;;;;16.10;99.90;;;;;;4942971;29;19934;-82
2023/03/30 07:33:32;;;;;;;;;;;16.10;99.90;;;;;;4961722;29;19981;-82
2023/03/30 07:36:02;;;;;;;;;;;16.10;99.90;;;;;;4953334;29;19922;-81
2023/03/30 07:38:29;;;;;;;;;;;16.00;99.90;;;;;;4944025;29;19910;-81
2023/03/30 07:40:59;;;;;;;;;;;15.80;99.90;;;;;;4962466;29;19972;-81
2023/03/30 07:43:26;;;;;;;;;;;15.70;99.90;;;;;;4944969;29;20056;-81
2023/03/30 07:45:55;;;;;;;;;;;15.50;99.90;;;;;;4944431;29;19926;-82
2023/03/30 07:48:30;;;;;;;;;;;15.30;99.90;;;;;;4943028;29;19985;-80
2023/03/30 07:51:01;;;;;;;;;;;15.10;99.90;;;;;;4942613;29;19926;-79
2023/03/30 07:53:30;;;;;;;;;;;15.10;99.90;;;;;;4940546;29;20355;-77
2023/03/30 07:56:00;;;;;;;;;;;15.10;99.90;;;;;;4939203;29;19938;-77
2023/03/30 07:58:35;;;;;;;;;;;15.20;99.90;;;;;;4949658;29;19922;-78
2023/03/30 08:01:03;;;;;;;;;;;15.30;99.90;;;;;;4958018;28;19966;-79
2023/03/30 08:03:36;;;;;;;;;;;15.40;99.90;;;;;;4963280;28;19930;-78
2023/03/30 08:06:06;;;;;;;;;;;15.70;99.90;;;;;;4944749;29;19922;-78
2023/03/30 08:08:39;;;;;;;;;;;15.90;99.90;;;;;;4945590;29;20331;-79
2023/03/30 08:11:11;;;;;;;;;;;16.00;99.90;;;;;;4944762;29;19934;-78
2023/03/30 08:13:40;;;;;;;;;;;16.10;99.90;;;;;;4975819;28;19990;-78
2023/03/30 08:16:08;;;;;;;;;;;16.10;99.90;;;;;;4977107;28;19933;-78
2023/03/30 08:18:36;;;;;;;;;;;16.30;99.90;;;;;;4939007;29;19969;-78
2023/03/30 08:21:03;;;;;;;;;;;16.40;99.90;;;;;;4925123;29;19922;-79
2023/03/30 08:23:30;;;;;;;;;;;16.50;99.90;;;;;;4925336;29;20017;-78
2023/03/30 08:25:57;;;;;;;;;;;16.50;99.90;;;;;;4941574;29;19926;-78
2023/03/30 08:28:25;;;;;;;;;;;16.50;99.90;;;;;;4924836;29;19926;-78
2023/03/30 08:30:53;;;;;;;;;;;16.60;99.90;;;;;;4923236;29;20040;-78
2023/03/30 08:33:21;;;;;;;;;;;16.60;99.90;;;;;;4939787;29;19927;-78
2023/03/30 08:35:50;;;;;;;;;;;16.80;99.90;;;;;;4960246;29;19926;-78
2023/03/30 08:38:17;;;;;;;;;;;17.00;99.90;;;;;;4942197;29;19926;-78
2023/03/30 08:40:45;;;;;;;;;;;17.20;99.90;;;;;;4959718;29;19933;-78
2023/03/30 08:43:22;;;;;;;;;;;17.20;99.90;;;;;;4961209;29;19910;-78
2023/03/30 08:45:51;;;;;;;;;;;17.30;99.90;;;;;;4960161;29;19926;-78
2023/03/30 08:48:20;;;;;;;;;;;17.70;99.90;;;;;;4942625;29;19937;-79
2023/03/30 08:50:49;;;;;;;;;;;18.20;99.90;;;;;;4961840;29;20033;-79
2023/03/30 08:53:17;;;;;;;;;;;18.70;99.90;;;;;;4943259;29;19926;-79
2023/03/30 08:55:46;;;;;;;;;;;18.80;99.90;;;;;;4960994;29;20306;-77
2023/03/30 08:58:15;;;;;;;;;;;18.90;99.90;;;;;;4941545;29;20363;-78
2023/03/30 09:00:44;;;;;;;;;;;18.70;99.90;;;;;;4959481;29;19926;-77
2023/03/30 09:03:18;;;;;;;;;;;18.60;99.90;;;;;;4957507;29;20368;-79
2023/03/30 09:05:48;;;;;;;;;;;18.40;99.90;;;;;;4942733;29;20317;-77
2023/03/30 09:08:18;;;;;;;;;;;18.40;99.90;;;;;;4921107;29;20489;-77
2023/03/30 09:10:48;;;;;;;;;;;18.50;99.90;;;;;;4935229;29;20368;-78
2023/03/30 09:13:16;;;;;;;;;;;18.60;99.90;;;;;;4948871;28;19923;-77
2023/03/30 09:15:47;;;;;;;;;;;18.50;99.90;;;;;;4956005;28;20016;-78
2023/03/30 09:18:17;;;;;;;;;;;18.60;99.90;;;;;;4939435;29;20021;-78
2023/03/30 09:20:44;;;;;;;;;;;18.10;99.90;;;;;;4946021;29;20006;-77
2023/03/30 09:23:13;;;;;;;;;;;17.90;99.90;;;;;;4957375;29;19926;-78
2023/03/30 09:25:43;;;;;;;;;;;17.60;99.90;;;;;;4941400;29;20358;-78
2023/03/30 09:28:14;;;;;;;;;;;17.20;99.90;;;;;;4936917;29;20353;-78
2023/03/30 09:30:42;;;;;;;;;;;16.90;99.90;;;;;;4943114;28;19930;-77
2023/03/30 09:33:14;;;;;;;;;;;16.70;99.90;;;;;;4940475;29;20466;-77
2023/03/30 09:35:44;;;;;;;;;;;16.60;99.90;;;;;;4941001;29;19930;-77
2023/03/30 09:38:12;;;;;;;;;;;16.50;99.90;;;;;;4939076;29;20394;-77
2023/03/30 09:40:46;;;;;;;;;;;16.70;99.90;;;;;;4935498;29;20701;-77
2023/03/30 09:43:14;;;;;;;;;;;17.00;99.90;;;;;;4940083;29;19973;-78
2023/03/30 09:45:42;;;;;;;;;;;17.20;99.90;;;;;;4942652;29;19977;-78
2023/03/30 09:48:09;;;;;;;;;;;17.30;99.90;;;;;;4940288;29;19985;-77
2023/03/30 09:50:38;;;;;;;;;;;17.40;99.90;;;;;;4957476;29;19929;-78
2023/03/30 09:53:18;;;;;;;;;;;17.40;99.90;;;;;;4939140;29;19927;-78
2023/03/30 09:55:54;;;;;;;;;;;17.10;99.90;;;;;;4939701;29;20335;-78
2023/03/30 09:58:28;;;;;;;;;;;16.70;99.90;;;;;;4956695;29;19998;-76
2023/03/30 10:01:04;;;;;;;;;;;16.40;99.90;;;;;;4941213;29;20258;-78
2023/03/30 10:03:31;;;;;;;;;;;16.10;99.90;;;;;;4940633;29;19922;-78
2023/03/30 10:06:03;;;;;;;;;;;16.00;99.90;;;;;;4942406;29;19926;-78
2023/03/30 10:08:31;;;;;;;;;;;15.90;99.90;;;;;;4957907;29;19941;-78
2023/03/30 10:10:59;;;;;;;;;;;15.90;99.90;;;;;;4941552;29;19926;-77
2023/03/30 10:13:28;;;;;;;;;;;15.90;99.90;;;;;;4944232;28;19934;-77
2023/03/30 10:15:55;;;;;;;;;;;16.00;99.90;;;;;;4948441;29;19926;-78
2023/03/30 10:18:26;;;;;;;;;;;16.10;99.90;;;;;;4940891;29;19926;-78
2023/03/30 10:21:31;;;;;;;;;;;;;;;;;;;;;
2023/03/30 10:24:06;;;;;;;;;;;16.40;99.90;;;;;;4944211;29;19933;-79
2023/03/30 10:26:35;;;;;;;;;;;16.50;99.90;;;;;;4944913;28;19910;-80
2023/03/30 10:29:04;;;;;;;;;;;16.30;99.90;;;;;;4934771;29;19966;-79
2023/03/30 10:31:33;;;;;;;;;;;17.00;99.90;;;;;;4962412;29;19997;-80
2023/03/30 10:34:01;;;;;;;;;;;17.10;99.90;;;;;;4965644;28;20402;-80
2023/03/30 10:36:30;;;;;;;;;;;17.20;99.90;;;;;;4982583;28;19926;-80
2023/03/30 10:39:02;;;;;;;;;;;17.30;99.90;;;;;;4964818;28;20370;-80
2023/03/30 10:41:31;;;;;;;;;;;17.50;99.90;;;;;;4953687;29;19922;-80
2023/03/30 10:44:05;;;;;;;;;;;17.60;99.90;;;;;;4945980;29;19922;-80
2023/03/30 10:46:32;;;;;;;;;;;17.90;99.90;;;;;;4945796;29;20305;-80
2023/03/30 10:49:02;;;;;;;;;;;18.30;99.90;;;;;;4943972;29;19969;-81
2023/03/30 10:51:34;;;;;;;;;;;18.70;99.90;;;;;;4945870;29;19926;-79
2023/03/30 10:54:05;;;;;;;;;;;19.00;99.90;;;;;;4945932;29;19953;-78
2023/03/30 10:56:38;;;;;;;;;;;19.00;99.90;;;;;;4942312;29;19930;-80
2023/03/30 10:59:19;;;;;;;;;;;19.00;99.90;;;;;;4951145;29;19927;-80
2023/03/30 11:01:53;;;;;;;;;;;19.00;99.90;;;;;;4929124;29;20311;-79
2023/03/30 11:04:22;;;;;;;;;;;18.90;99.90;;;;;;4938614;29;20140;-79
2023/03/30 11:06:49;;;;;;;;;;;18.90;99.90;;;;;;4944456;28;20497;-80
2023/03/30 11:09:18;;;;;;;;;;;18.80;99.90;;;;;;4960848;29;19926;-79
2023/03/30 11:11:48;;;;;;;;;;;18.70;99.90;;;;;;4959774;28;19933;-79
2023/03/30 11:14:19;;;;;;;;;;;18.90;99.90;;;;;;4945500;29;19937;-80
2023/03/30 11:16:49;;;;;;;;;;;19.30;99.90;;;;;;4942974;28;19942;-79
2023/03/30 11:19:18;;;;;;;;;;;19.60;99.90;;;;;;4943458;29;20290;-80
2023/03/30 11:21:49;;;;;;;;;;;19.90;99.90;;;;;;4944433;29;19949;-80
2023/03/30 11:24:18;;;;;;;;;;;19.70;99.90;;;;;;4942643;29;19977;-79
2023/03/30 11:26:49;;;;;;;;;;;19.60;99.90;;;;;;4960850;28;19926;-79
2023/03/30 11:29:24;;;;;;;;;;;19.50;99.90;;;;;;4961686;29;19933;-79
2023/03/30 11:31:55;;;;;;;;;;;19.40;99.90;;;;;;4944691;28;20389;-79
2023/03/30 11:34:28;;;;;;;;;;;19.30;99.90;;;;;;4944259;29;19922;-80
2023/03/30 11:36:57;;;;;;;;;;;19.00;99.90;;;;;;4942670;28;19923;-78
2023/03/30 11:39:29;;;;;;;;;;;18.80;99.90;;;;;;4945703;28;19923;-78
2023/03/30 11:42:00;;;;;;;;;;;18.50;99.90;;;;;;4941117;29;19952;-78
2023/03/30 11:44:27;;;;;;;;;;;18.30;99.90;;;;;;4941381;29;19930;-80
2023/03/30 11:47:00;;;;;;;;;;;18.40;99.90;;;;;;4940727;28;19981;-80
2023/03/30 11:49:41;;;;;;;;;;;18.80;99.90;;;;;;4941165;29;20276;-80
2023/03/30 11:52:26;;;;;;;;;;;19.40;99.90;;;;;;4943653;29;20252;-80
2023/03/30 11:55:07;;;;;;;;;;;19.90;99.90;;;;;;4944720;29;19922;-80
2023/03/30 11:57:37;;;;;;;;;;;19.90;99.90;;;;;;4954264;28;19934;-80
2023/03/30 12:00:15;;;;;;;;;;;20.00;99.90;;;;;;4944040;28;19936;-80
2023/03/30 12:02:47;;;;;;;;;;;19.90;99.90;;;;;;4938760;29;19993;-80
2023/03/30 12:05:18;;;;;;;;;;;19.70;99.90;;;;;;4942199;29;19966;-80
2023/03/30 12:07:47;;;;;;;;;;;19.40;99.90;;;;;;4958311;28;19930;-79
2023/03/30 12:10:28;;;;;;;;;;;19.30;99.90;;;;;;4940830;29;19932;-80
2023/03/30 12:13:26;;;;;;;;;;;19.20;99.90;;;;;;4937224;29;19932;-78
2023/03/30 12:15:55;;;;;;;;;;;19.00;99.90;;;;;;4944221;28;19937;-79
2023/03/30 12:18:31;;;;;;;;;;;19.00;99.90;;;;;;4946073;29;20508;-83
2023/03/30 12:21:04;;;;;;;;;;;18.70;99.90;;;;;;4943613;29;19926;-81
2023/03/30 12:23:36;;;;;;;;;;;18.40;99.90;;;;;;4946307;29;19926;-82
2023/03/30 12:26:21;;;;;;;;;;;18.00;99.90;;;;;;4936470;29;19981;-83
2023/03/30 12:28:57;;;;;;;;;;;17.90;99.90;;;;;;4970224;23;19927;-77
2023/03/30 12:31:44;;;;;;;;;;;17.70;99.90;;;;;;4947151;28;19926;-77
2023/03/30 12:34:11;;;;;;;;;;;17.50;99.90;;;;;;4947529;29;19986;-77
2023/03/30 12:36:39;;;;;;;;;;;17.40;99.90;;;;;;4963984;29;19930;-75
2023/03/30 12:39:08;;;;;;;;;;;17.20;99.90;;;;;;4961655;29;19933;-77
2023/03/30 12:41:40;;;;;;;;;;;17.00;99.90;;;;;;4958272;28;19923;-77
2023/03/30 12:44:20;;;;;;;;;;;16.70;99.90;;;;;;4939437;29;19958;-77
2023/03/30 12:46:52;;;;;;;;;;;16.60;99.90;;;;;;4959218;29;19926;-77
2023/03/30 12:49:24;;;;;;;;;;;16.30;99.90;;;;;;4954933;28;19933;-77
2023/03/30 12:52:00;;;;;;;;;;;16.00;99.90;;;;;;4943620;29;19923;-77
2023/03/30 12:54:45;;;;;;;;;;;15.60;99.90;;;;;;4949357;29;19926;-76
2023/03/30 12:57:17;;;;;;;;;;;15.30;99.90;;;;;;4951280;29;19922;-76
2023/03/30 13:00:03;;;;;;;;;;;15.10;99.90;;;;;;4948758;28;19926;-77
2023/03/30 13:02:47;;;;;;;;;;;14.60;99.90;;;;;;5454303;23;19953;-77
2023/03/30 13:05:17;;;;;;;;;;;14.20;99.90;;;;;;4955110;28;19930;-77
2023/03/30 13:07:44;;;;;;;;;;;14.10;99.90;;;;;;4947170;29;19923;-77
2023/03/30 13:10:26;;;;;;;;;;;14.60;99.90;;;;;;4949637;29;19922;-76
2023/03/30 13:12:55;;;;;;;;;;;15.20;99.90;;;;;;4959403;28;19930;-78
2023/03/30 13:15:40;;;;;;;;;;;15.80;99.90;;;;;;4955860;28;19946;-75
2023/03/30 13:18:21;;;;;;;;;;;16.20;99.90;;;;;;4952407;29;20053;-76
2023/03/30 13:21:04;;;;;;;;;;;16.50;99.90;;;;;;4954113;29;19962;-76
2023/03/30 13:23:33;;;;;;;;;;;16.70;99.90;;;;;;4966438;28;19985;-76
2023/03/30 13:26:04;;;;;;;;;;;17.00;99.90;;;;;;4942147;29;19926;-76
2023/03/30 13:28:36;;;;;;;;;;;17.30;99.90;;;;;;4932447;29;20017;-76
2023/03/30 13:31:08;;;;;;;;;;;17.70;99.90;;;;;;4954456;28;19926;-78
2023/03/30 13:33:37;;;;;;;;;;;18.00;99.90;;;;;;4951425;29;19938;-77
2023/03/30 13:36:08;;;;;;;;;;;18.20;99.90;;;;;;4950131;28;19926;-76
2023/03/30 13:38:53;;;;;;;;;;;18.40;99.90;;;;;;4933947;29;19926;-78
2023/03/30 13:41:27;;;;;;;;;;;18.60;99.90;;;;;;4940556;28;19930;-77
2023/03/30 13:44:01;;;;;;;;;;;18.90;99.90;;;;;;4946162;29;20017;-80
2023/03/30 13:46:32;;;;;;;;;;;19.00;99.90;;;;;;4952645;29;19942;-77
2023/03/30 13:49:05;;;;;;;;;;;19.20;99.90;;;;;;4954193;29;19929;-79
2023/03/30 13:51:32;;;;;;;;;;;19.10;99.90;;;;;;4953137;28;20024;-77
2023/03/30 13:54:00;;;;;;;;;;;19.20;99.90;;;;;;4950686;29;19946;-81
2023/03/30 13:56:29;;;;;;;;;;;19.40;99.90;;;;;;4952149;28;19933;-80
2023/03/30 13:58:59;;;;;;;;;;;19.50;99.90;;;;;;4952269;29;19982;-78
2023/03/30 14:04:12;;;;;;;;;;;19.30;99.90;;;;;;5143655;23;20303;-77
2023/03/30 14:06:42;;;;;;;;;;;19.10;99.90;;;;;;4963941;28;19922;-76
2023/03/30 14:09:11;;;;;;;;;;;19.10;99.90;;;;;;4968772;28;20294;-77
2023/03/30 14:11:39;;;;;;;;;;;19.40;99.90;;;;;;4971106;28;19926;-77
2023/03/30 14:14:06;;;;;;;;;;;19.10;99.90;;;;;;4963106;28;19929;-76
2023/03/30 14:16:35;;;;;;;;;;;19.00;99.90;;;;;;4969784;28;20013;-77
2023/03/30 14:19:09;;;;;;;;;;;19.00;99.90;;;;;;4968277;28;19965;-79
2023/03/30 14:21:37;;;;;;;;;;;19.10;99.90;;;;;;4965004;28;20307;-80
2023/03/30 14:24:04;;;;;;;;;;;19.20;99.90;;;;;;4970029;28;20442;-79
2023/03/30 14:26:31;;;;;;;;;;;19.50;99.90;;;;;;4964427;28;19926;-79
2023/03/30 14:29:01;;;;;;;;;;;19.60;99.90;;;;;;4970642;28;19926;-81
2023/03/30 14:31:28;;;;;;;;;;;19.30;99.90;;;;;;4970856;28;19990;-81
2023/03/30 14:33:54;;;;;;;;;;;19.10;99.90;;;;;;4970982;28;20275;-79
2023/03/30 14:36:21;;;;;;;;;;;18.80;99.90;;;;;;4969657;28;19996;-76
2023/03/30 14:38:50;;;;;;;;;;;18.40;99.90;;;;;;4969720;28;19934;-76
2023/03/30 14:41:21;;;;;;;;;;;18.10;99.90;;;;;;4969705;28;19926;-76
2023/03/30 14:43:52;;;;;;;;;;;17.90;99.90;;;;;;4967975;28;20063;-76
2023/03/30 14:46:19;;;;;;;;;;;17.70;99.90;;;;;;4970128;28;19922;-76
2023/03/30 14:48:47;;;;;;;;;;;17.60;99.90;;;;;;4963931;28;19984;-76
2023/03/30 14:51:22;;;;;;;;;;;17.50;99.90;;;;;;4981804;28;19981;-78
2023/03/30 14:53:51;;;;;;;;;;;17.40;99.90;;;;;;4968224;28;20458;-75
2023/03/30 14:56:18;;;;;;;;;;;17.50;99.90;;;;;;4966514;28;20814;-77